Flight Number: EUR2429 Duration: 6:00
Departure: Casablanca Int'l (GMMN) at 06:00 Distance: 2562 Nm
Arrival: Jeddah King Abdul Aziz (OEJN) at 12:00 Equipment: B757-200

Weather Information
Nouasseur, Morocco (GMMN) 33-22N 007-35W 206M Oct 17, 2018 - 11:00 PM EDT / 2018.10.18 0300 UTC
Wind: from the SW (220 degrees) at 8 MPH (7 KT):0
Visibility: greater than 7 mile(s):0
Sky conditions: mostly cloudy Temperature: 60 F (16 C) Dew Point: 60 F (16 C) Relative Humidity: 100% Pressure (altimeter): 29.94 in. Hg (1014 hPa)
ob: GMMN 180300Z 22007KT 9999 BKN016 16/16 Q1014 NOSIG cycle: 3
Sunrise: 06:40 Sunset: 17:50 (UTC)

Jeddah King Abdul Aziz International Airport , Saudi Arabia (OEJN) 21-42N 039-11E 17M Oct 17, 2018 - 11:00 PM EDT / 2018.10.18 0300 UTC
Wind: Calm:0
Visibility: greater than 7 mile(s):0
Sky conditions: mostly clear Temperature: 80 F (27 C) Dew Point: 64 F (18 C) Relative Humidity: 57% Pressure (altimeter): 29.80 in. Hg (1009 hPa)
ob: OEJN 180300Z 00000KT 9999 FEW040 27/18 Q1009 NOSIG cycle: 3
Sunrise: 03:23 Sunset: 14:53 (UTC)

TAF:2018/10/17 18:03 TAF OEJN 171700Z 1718/1824 04006KT 9999 FEW040 BECMG 1800/1802 VRB03KT TEMPO 1800/1804 3500 BR FEW020 BECMG 1806/1808 24012KT 7000 SCT040

This route has never been flown.

Route map